createdAt,value
2022-11-20T00:00:53.344Z,0.00
2022-11-20T00:01:53.363Z,0.00
2022-11-20T00:02:53.301Z,0.00
2022-11-20T00:03:53.276Z,0.00
2022-11-20T00:04:53.253Z,0.00
2022-11-20T00:05:53.231Z,0.00
2022-11-20T00:06:53.246Z,0.00
2022-11-20T00:07:53.187Z,0.00
2022-11-20T00:08:53.244Z,0.00
2022-11-20T00:09:53.148Z,0.00
2022-11-20T00:10:53.127Z,0.00
2022-11-20T00:11:53.102Z,0.00
2022-11-20T00:12:53.080Z,0.00
2022-11-20T00:14:53.047Z,0.00
2022-11-20T00:15:53.029Z,0.00
2022-11-20T00:16:53.003Z,0.00
2022-11-20T00:17:52.979Z,0.00
2022-11-20T00:19:00.216Z,0.00
2022-11-20T00:20:57.374Z,0.00
2022-11-20T00:21:57.330Z,0.00
2022-11-20T00:24:01.752Z,0.00
2022-11-20T00:25:01.726Z,0.00
2022-11-20T00:27:05.687Z,0.00
2022-11-20T00:28:05.645Z,0.00
2022-11-20T00:29:58.520Z,0.00
2022-11-20T00:30:58.491Z,0.00
2022-11-20T00:33:02.450Z,0.00
2022-11-20T00:34:02.410Z,0.00
2022-11-20T00:36:06.362Z,0.00
2022-11-20T00:37:06.315Z,0.00
2022-11-20T00:39:10.251Z,0.00
2022-11-20T00:40:10.224Z,0.00
2022-11-20T00:42:14.167Z,0.00
2022-11-20T00:43:15.126Z,0.00
2022-11-20T00:45:18.079Z,0.00
2022-11-20T00:46:18.050Z,0.00
2022-11-20T00:48:21.988Z,0.00
2022-11-20T00:49:22.209Z,0.00
2022-11-20T00:51:25.911Z,0.00
2022-11-20T00:52:25.862Z,0.00
2022-11-20T00:54:29.809Z,0.00
2022-11-20T00:55:29.775Z,0.00
2022-11-20T00:57:33.731Z,0.00
2022-11-20T00:58:33.697Z,0.00
2022-11-20T01:00:37.630Z,0.00
2022-11-20T01:01:37.643Z,0.00
2022-11-20T01:03:41.551Z,0.00
2022-11-20T01:04:41.515Z,0.00
2022-11-20T01:06:45.458Z,0.00
2022-11-20T01:07:45.414Z,0.00
2022-11-20T01:09:38.300Z,0.00
2022-11-20T01:10:38.270Z,0.00
2022-11-20T01:12:42.867Z,0.00
2022-11-20T01:13:42.825Z,0.00
2022-11-20T01:15:46.765Z,0.00
2022-11-20T01:16:47.355Z,0.00
2022-11-20T01:17:46.717Z,0.00
2022-11-20T01:18:46.696Z,0.00
2022-11-20T01:19:46.673Z,0.00
2022-11-20T01:20:46.652Z,0.00
2022-11-20T01:21:46.635Z,0.00
2022-11-20T01:22:46.608Z,0.00
2022-11-20T01:23:46.588Z,0.00
2022-11-20T01:24:46.565Z,0.00
2022-11-20T01:25:46.541Z,0.00
2022-11-20T01:26:46.524Z,0.00
2022-11-20T01:27:46.498Z,0.00
2022-11-20T01:28:46.480Z,0.00
2022-11-20T01:29:46.456Z,0.00
2022-11-20T01:30:46.432Z,0.00
2022-11-20T01:31:46.413Z,0.00
2022-11-20T01:32:46.394Z,0.00
2022-11-20T01:33:46.389Z,0.00
2022-11-20T01:34:46.354Z,0.00
2022-11-20T01:35:46.323Z,0.00
2022-11-20T01:36:46.312Z,0.00
2022-11-20T01:37:46.283Z,0.00
2022-11-20T01:38:46.258Z,0.00
2022-11-20T01:39:46.238Z,0.00
2022-11-20T01:40:46.217Z,0.00
2022-11-20T01:41:46.196Z,0.00
2022-11-20T01:42:46.171Z,0.00
2022-11-20T01:43:46.149Z,0.00
2022-11-20T01:44:46.128Z,0.00
2022-11-20T01:45:46.103Z,0.00
2022-11-20T01:46:46.085Z,0.00
2022-11-20T01:47:46.061Z,0.00
2022-11-20T01:48:46.043Z,0.00
2022-11-20T01:49:46.018Z,0.00
2022-11-20T01:50:46.001Z,0.00
2022-11-20T01:51:45.975Z,0.00
2022-11-20T01:52:45.955Z,0.00
2022-11-20T01:53:45.931Z,0.00
2022-11-20T01:54:45.911Z,0.00
2022-11-20T01:55:45.889Z,0.00
2022-11-20T01:56:45.867Z,0.00
2022-11-20T01:57:45.846Z,0.00
2022-11-20T01:58:45.823Z,0.00
2022-11-20T01:59:45.801Z,0.00
2022-11-20T02:00:45.785Z,0.00
2022-11-20T02:01:45.817Z,0.00
2022-11-20T02:02:45.737Z,0.00
2022-11-20T02:03:45.713Z,0.00
2022-11-20T02:04:45.694Z,0.00
2022-11-20T02:05:45.673Z,0.00
2022-11-20T02:06:45.653Z,0.00
2022-11-20T02:07:45.629Z,0.00
2022-11-20T02:08:45.608Z,0.00
2022-11-20T02:09:45.586Z,0.00
2022-11-20T02:10:45.564Z,0.00
2022-11-20T02:11:45.541Z,0.00
2022-11-20T02:12:45.521Z,0.00
2022-11-20T02:13:45.502Z,0.00
2022-11-20T02:14:45.476Z,0.00
2022-11-20T02:15:45.456Z,0.00
2022-11-20T02:16:45.434Z,0.00
2022-11-20T02:17:45.411Z,0.00
2022-11-20T02:18:45.388Z,0.00
2022-11-20T02:19:45.370Z,0.00
2022-11-20T02:20:45.348Z,0.00
2022-11-20T02:21:45.326Z,0.00
2022-11-20T02:22:45.302Z,0.00
2022-11-20T02:23:45.283Z,0.00
2022-11-20T02:24:45.259Z,0.00
2022-11-20T02:25:45.238Z,0.00
2022-11-20T02:26:45.222Z,0.00
2022-11-20T02:27:45.196Z,0.00
2022-11-20T02:28:45.174Z,0.00
2022-11-20T02:29:45.149Z,0.00
2022-11-20T02:30:45.135Z,0.00
2022-11-20T02:31:45.111Z,0.00
2022-11-20T02:32:45.085Z,0.00
2022-11-20T02:33:45.065Z,0.00
2022-11-20T02:34:45.043Z,0.00
2022-11-20T02:35:45.023Z,0.00
2022-11-20T02:36:45.000Z,0.00
2022-11-20T02:37:44.984Z,0.00
2022-11-20T02:38:44.956Z,0.00
2022-11-20T02:39:44.938Z,0.00
2022-11-20T02:40:44.914Z,0.00
2022-11-20T02:41:44.899Z,0.00
2022-11-20T02:42:44.868Z,0.00
2022-11-20T02:43:44.850Z,0.00
2022-11-20T02:44:44.829Z,0.00
2022-11-20T02:45:44.808Z,0.00
2022-11-20T02:46:44.783Z,0.00
2022-11-20T02:47:44.764Z,0.00
2022-11-20T02:48:44.745Z,0.00
2022-11-20T02:49:44.720Z,0.00
2022-11-20T02:50:44.696Z,0.00
2022-11-20T02:51:44.679Z,0.00
2022-11-20T02:52:44.656Z,0.00
2022-11-20T02:53:44.635Z,0.00
2022-11-20T02:54:44.612Z,0.00
2022-11-20T02:55:44.591Z,0.00
2022-11-20T02:56:44.569Z,0.00
2022-11-20T02:57:44.546Z,0.00
2022-11-20T02:58:44.525Z,0.00
2022-11-20T02:59:44.504Z,0.00
2022-11-20T03:00:44.481Z,0.00
2022-11-20T03:01:44.502Z,0.00
2022-11-20T03:02:44.440Z,0.00
2022-11-20T03:03:44.420Z,0.00
2022-11-20T03:04:44.401Z,0.00
2022-11-20T03:05:44.375Z,0.00
2022-11-20T03:06:44.352Z,0.00
2022-11-20T03:07:44.425Z,0.00
2022-11-20T03:08:44.315Z,0.00
2022-11-20T03:09:44.298Z,0.00
2022-11-20T03:10:44.268Z,0.00
2022-11-20T03:11:44.245Z,0.00
2022-11-20T03:12:44.223Z,0.00
2022-11-20T03:13:44.202Z,0.00
2022-11-20T03:14:44.407Z,0.00
2022-11-20T03:15:44.159Z,0.00
2022-11-20T03:16:44.146Z,0.00
2022-11-20T03:17:44.115Z,0.00
2022-11-20T03:18:44.095Z,0.00
2022-11-20T03:19:44.075Z,0.00
2022-11-20T03:20:44.055Z,0.00
2022-11-20T03:21:44.028Z,0.00
2022-11-20T03:22:44.008Z,0.00
2022-11-20T03:23:43.991Z,0.00
2022-11-20T03:24:43.967Z,0.00
2022-11-20T03:25:43.945Z,0.00
2022-11-20T03:26:43.940Z,0.00
2022-11-20T03:27:43.903Z,0.00
2022-11-20T03:28:43.877Z,0.00
2022-11-20T03:29:43.858Z,0.00
2022-11-20T03:30:43.834Z,0.00
2022-11-20T03:31:43.819Z,0.00
2022-11-20T03:32:43.792Z,0.00
2022-11-20T03:33:43.773Z,0.00
2022-11-20T03:34:43.750Z,0.00
2022-11-20T03:35:43.730Z,0.00
2022-11-20T03:36:43.705Z,0.00
2022-11-20T03:37:43.687Z,0.00
2022-11-20T03:38:43.900Z,0.00
2022-11-20T03:39:43.650Z,0.00
2022-11-20T03:40:43.629Z,0.00
2022-11-20T03:41:43.608Z,0.00
2022-11-20T03:42:43.583Z,0.00
2022-11-20T03:43:43.560Z,0.00
2022-11-20T03:44:43.535Z,0.00
2022-11-20T03:45:43.517Z,0.00
2022-11-20T03:46:43.494Z,0.00
2022-11-20T03:47:43.473Z,0.00
2022-11-20T03:48:47.494Z,0.00
2022-11-20T03:49:43.427Z,0.00
2022-11-20T03:50:43.407Z,0.00
2022-11-20T03:51:43.387Z,0.00
2022-11-20T03:52:43.364Z,0.00
2022-11-20T03:53:43.344Z,0.00
2022-11-20T03:54:43.321Z,0.00
2022-11-20T03:55:43.299Z,0.00
2022-11-20T03:56:43.277Z,0.00
2022-11-20T03:57:43.260Z,0.00
2022-11-20T03:58:43.243Z,0.00
2022-11-20T03:59:43.214Z,0.00
2022-11-20T04:00:43.191Z,0.00
2022-11-20T04:01:46.874Z,0.00
2022-11-20T04:02:43.149Z,0.00
2022-11-20T04:03:43.129Z,0.00
2022-11-20T04:04:43.105Z,0.00
2022-11-20T04:05:43.093Z,0.00
2022-11-20T04:06:43.069Z,0.00
2022-11-20T04:07:43.078Z,0.00
2022-11-20T04:08:43.018Z,0.00
2022-11-20T04:09:43.001Z,0.00
2022-11-20T04:10:42.978Z,0.00
2022-11-20T04:11:42.957Z,0.00
2022-11-20T04:12:42.936Z,0.00
2022-11-20T04:13:42.914Z,0.00
2022-11-20T04:14:42.890Z,0.00
2022-11-20T04:15:42.876Z,0.00
2022-11-20T04:16:42.849Z,0.00
2022-11-20T04:17:42.857Z,0.00
2022-11-20T04:18:42.807Z,0.00
2022-11-20T04:19:42.791Z,0.00
2022-11-20T04:20:42.780Z,0.00
2022-11-20T04:21:42.745Z,0.00
2022-11-20T04:22:42.724Z,0.00
2022-11-20T04:23:42.700Z,0.00
2022-11-20T04:24:42.676Z,0.00
2022-11-20T04:25:42.655Z,0.00
2022-11-20T04:26:42.634Z,0.00
2022-11-20T04:27:42.613Z,0.00
2022-11-20T04:28:42.600Z,0.00
2022-11-20T04:29:42.568Z,0.00
2022-11-20T04:30:42.548Z,0.00
2022-11-20T04:31:42.542Z,0.00
2022-11-20T04:32:42.502Z,0.00
2022-11-20T04:33:42.486Z,0.00
2022-11-20T04:34:42.460Z,0.00
2022-11-20T04:35:42.439Z,0.00
2022-11-20T04:36:42.419Z,0.00
2022-11-20T04:37:42.396Z,0.00
2022-11-20T04:38:42.387Z,0.00
2022-11-20T04:39:42.356Z,0.00
2022-11-20T04:40:42.332Z,0.00
2022-11-20T04:41:42.313Z,0.00
2022-11-20T04:42:42.287Z,0.00
2022-11-20T04:43:42.268Z,0.00
2022-11-20T04:44:42.245Z,0.00
2022-11-20T04:45:42.228Z,0.00
2022-11-20T04:46:42.205Z,0.00
2022-11-20T04:47:42.182Z,0.00
2022-11-20T04:48:42.160Z,0.00
2022-11-20T04:49:42.171Z,0.00
2022-11-20T04:50:42.117Z,0.00
2022-11-20T04:51:42.097Z,0.00
2022-11-20T04:52:42.072Z,0.00
2022-11-20T04:53:42.052Z,0.00
2022-11-20T04:54:42.029Z,0.00
2022-11-20T04:55:42.011Z,0.00
2022-11-20T04:56:41.988Z,0.00
2022-11-20T04:57:41.976Z,0.00
2022-11-20T04:58:41.943Z,0.00
2022-11-20T04:59:41.925Z,0.00
2022-11-20T05:00:41.900Z,0.00
2022-11-20T05:01:41.947Z,0.00
2022-11-20T05:02:41.860Z,0.00
2022-11-20T05:03:42.710Z,0.00
2022-11-20T05:04:41.815Z,0.00
2022-11-20T05:05:41.794Z,0.00
2022-11-20T05:06:41.773Z,0.00
2022-11-20T05:07:41.834Z,0.00
2022-11-20T05:08:41.729Z,0.00
2022-11-20T05:09:41.706Z,0.00
2022-11-20T05:10:41.685Z,0.00
2022-11-20T05:11:41.674Z,0.00
2022-11-20T05:12:41.644Z,0.00
2022-11-20T05:13:41.621Z,0.00
2022-11-20T05:14:41.599Z,0.00
2022-11-20T05:15:41.584Z,0.00
2022-11-20T05:16:41.557Z,0.00
2022-11-20T05:17:41.537Z,0.00
2022-11-20T05:18:41.519Z,0.00
2022-11-20T05:19:42.251Z,0.00
2022-11-20T05:20:41.475Z,0.00
2022-11-20T05:21:41.451Z,0.00
2022-11-20T05:22:41.428Z,0.00
2022-11-20T05:23:41.412Z,0.00
2022-11-20T05:24:41.389Z,0.00
2022-11-20T05:25:41.364Z,0.00
2022-11-20T05:26:41.344Z,0.00
2022-11-20T05:27:41.323Z,0.00
2022-11-20T05:28:41.299Z,0.00
2022-11-20T05:29:41.277Z,0.00
2022-11-20T05:30:41.266Z,0.00
2022-11-20T05:31:41.269Z,0.00
2022-11-20T05:32:41.216Z,0.00
2022-11-20T05:33:41.194Z,0.00
2022-11-20T05:34:41.181Z,0.00
2022-11-20T05:35:41.149Z,0.00
2022-11-20T05:36:41.131Z,0.00
2022-11-20T05:37:41.108Z,0.00
2022-11-20T05:38:41.084Z,0.00
2022-11-20T05:39:41.067Z,0.00
2022-11-20T05:40:41.042Z,0.00
2022-11-20T05:41:41.022Z,0.00
2022-11-20T05:42:40.999Z,0.00
2022-11-20T05:43:40.978Z,0.00
2022-11-20T05:44:40.956Z,0.00
2022-11-20T05:45:40.934Z,0.00
2022-11-20T05:46:40.918Z,0.00
2022-11-20T05:47:40.893Z,0.00
2022-11-20T05:48:40.870Z,0.00
2022-11-20T05:49:40.853Z,0.00
2022-11-20T05:50:40.830Z,0.00
2022-11-20T05:51:40.807Z,0.00
2022-11-20T05:52:40.785Z,0.00
2022-11-20T05:53:45.253Z,0.00
2022-11-20T05:54:40.743Z,0.00
2022-11-20T05:55:40.721Z,0.00
2022-11-20T05:56:40.699Z,0.00
2022-11-20T05:57:40.680Z,0.00
2022-11-20T05:58:40.655Z,0.00
2022-11-20T05:59:40.633Z,0.00
2022-11-20T06:00:40.613Z,0.00
2022-11-20T06:01:40.597Z,0.00
2022-11-20T06:02:40.615Z,0.00
2022-11-20T06:03:40.552Z,0.00
2022-11-20T06:04:40.537Z,0.00
2022-11-20T06:05:40.505Z,0.00
2022-11-20T06:06:40.485Z,0.00
2022-11-20T06:07:40.518Z,0.00
2022-11-20T06:08:40.441Z,0.00
2022-11-20T06:09:40.421Z,0.00
2022-11-20T06:10:40.397Z,0.00
2022-11-20T06:11:40.377Z,0.00
2022-11-20T06:12:40.354Z,0.00
2022-11-20T06:13:42.262Z,0.00
2022-11-20T06:14:40.314Z,0.00
2022-11-20T06:15:40.295Z,0.00
2022-11-20T06:16:40.270Z,0.00
2022-11-20T06:17:40.248Z,0.00
2022-11-20T06:18:40.228Z,0.00
2022-11-20T06:19:40.205Z,0.00
2022-11-20T06:20:42.264Z,0.00
2022-11-20T06:21:40.167Z,0.00
2022-11-20T06:22:40.601Z,0.00
2022-11-20T06:23:40.123Z,0.00
2022-11-20T06:24:40.099Z,0.00
2022-11-20T06:25:40.080Z,0.00
2022-11-20T06:26:40.056Z,0.00
2022-11-20T06:27:40.035Z,0.00
2022-11-20T06:28:40.012Z,0.00
2022-11-20T06:29:39.992Z,0.00
2022-11-20T06:30:39.970Z,0.00
2022-11-20T06:31:39.950Z,0.00
2022-11-20T06:32:39.929Z,0.00
2022-11-20T06:33:39.904Z,0.00
2022-11-20T06:34:39.886Z,4.00
2022-11-20T06:35:39.870Z,4.00
2022-11-20T06:36:39.844Z,0.00
2022-11-20T06:37:39.821Z,4.00
2022-11-20T06:38:39.800Z,4.00
2022-11-20T06:39:39.782Z,4.00
2022-11-20T06:40:39.758Z,4.00
2022-11-20T06:41:39.736Z,4.00
2022-11-20T06:42:39.717Z,8.00
2022-11-20T06:43:39.693Z,4.00
2022-11-20T06:44:39.678Z,4.00
2022-11-20T06:45:39.649Z,4.00
2022-11-20T06:46:39.629Z,8.00
2022-11-20T06:47:39.613Z,8.00
2022-11-20T06:48:40.291Z,8.00
2022-11-20T06:49:39.566Z,8.00
2022-11-20T06:50:39.546Z,4.00
2022-11-20T06:51:39.522Z,12.00
2022-11-20T06:52:43.497Z,8.00
2022-11-20T06:53:39.485Z,12.00
2022-11-20T06:54:39.461Z,12.00
2022-11-20T06:55:39.439Z,12.00
2022-11-20T06:56:39.426Z,12.00
2022-11-20T06:57:39.400Z,12.00
2022-11-20T06:58:39.377Z,12.00
2022-11-20T06:59:39.358Z,12.00
2022-11-20T07:00:39.371Z,12.00
2022-11-20T07:01:39.314Z,12.00
2022-11-20T07:02:39.291Z,12.00
2022-11-20T07:03:39.275Z,12.00
2022-11-20T07:04:39.249Z,12.00
2022-11-20T07:05:39.229Z,12.00
2022-11-20T07:06:39.209Z,16.00
2022-11-20T07:07:39.257Z,16.00
2022-11-20T07:08:39.185Z,20.00
2022-11-20T07:09:39.142Z,24.00
2022-11-20T07:10:39.120Z,28.00
2022-11-20T07:11:39.103Z,32.00
2022-11-20T07:12:39.079Z,36.00
2022-11-20T07:13:39.059Z,44.00
2022-11-20T07:14:39.037Z,40.00
2022-11-20T07:15:39.015Z,40.00
2022-11-20T07:16:38.995Z,36.00
2022-11-20T07:17:38.972Z,36.00
2022-11-20T07:18:38.955Z,32.00
2022-11-20T07:19:38.930Z,28.00
2022-11-20T07:20:38.910Z,32.00
2022-11-20T07:21:38.898Z,32.00
2022-11-20T07:22:38.867Z,36.00
2022-11-20T07:23:38.846Z,44.00
2022-11-20T07:24:43.156Z,44.00
2022-11-20T07:25:38.804Z,40.00
2022-11-20T07:26:38.783Z,40.00
2022-11-20T07:27:45.970Z,40.00
2022-11-20T07:29:42.712Z,36.00
2022-11-20T07:30:42.666Z,40.00
2022-11-20T07:32:46.615Z,56.00
2022-11-20T07:33:46.590Z,52.00
2022-11-20T07:35:50.545Z,48.00
2022-11-20T07:36:50.506Z,44.00
2022-11-20T07:38:43.373Z,48.00
2022-11-20T07:39:43.338Z,52.00
2022-11-20T07:41:47.271Z,44.00
2022-11-20T07:42:47.247Z,40.00
2022-11-20T07:44:51.210Z,40.00
2022-11-20T07:45:51.169Z,44.00
2022-11-20T07:47:55.099Z,52.00
2022-11-20T07:48:55.073Z,52.00
2022-11-20T07:50:59.023Z,56.00
2022-11-20T07:52:04.237Z,60.00
2022-11-20T07:52:58.961Z,60.00
2022-11-20T07:53:58.938Z,64.00
2022-11-20T07:54:58.922Z,64.00
2022-11-20T07:55:58.899Z,52.00
2022-11-20T07:56:58.882Z,48.00
2022-11-20T07:57:58.853Z,44.00
2022-11-20T07:58:58.843Z,44.00
2022-11-20T07:59:58.816Z,40.00
2022-11-20T08:00:58.848Z,36.00
2022-11-20T08:01:58.770Z,36.00
2022-11-20T08:02:58.751Z,40.00
2022-11-20T08:03:58.728Z,44.00
2022-11-20T08:04:58.711Z,44.00
2022-11-20T08:05:58.694Z,48.00
2022-11-20T08:06:58.694Z,56.00
2022-11-20T08:07:58.649Z,52.00
2022-11-20T08:08:58.625Z,52.00
2022-11-20T08:09:58.618Z,68.00
2022-11-20T08:10:58.581Z,92.00
2022-11-20T08:11:58.560Z,92.00
2022-11-20T08:12:58.538Z,88.00
2022-11-20T08:13:58.519Z,80.00
2022-11-20T08:14:58.498Z,84.00
2022-11-20T08:15:58.477Z,84.00
2022-11-20T08:16:58.455Z,76.00
2022-11-20T08:18:28.933Z,72.00
2022-11-20T08:18:58.412Z,68.00
2022-11-20T08:19:58.390Z,72.00
2022-11-20T08:20:58.373Z,72.00
2022-11-20T08:21:58.347Z,76.00
2022-11-20T08:22:58.327Z,84.00
2022-11-20T08:23:58.307Z,84.00
2022-11-20T08:24:58.285Z,88.00
2022-11-20T08:25:58.264Z,88.00
2022-11-20T08:26:58.243Z,92.00
2022-11-20T08:28:00.342Z,88.00
2022-11-20T08:28:58.201Z,92.00
2022-11-20T08:29:58.181Z,104.00
2022-11-20T08:30:58.159Z,124.00
2022-11-20T08:31:58.137Z,116.00
2022-11-20T08:32:58.116Z,112.00
2022-11-20T08:33:58.094Z,116.00
2022-11-20T08:34:58.075Z,124.00
2022-11-20T08:35:58.055Z,124.00
2022-11-20T08:36:58.032Z,112.00
2022-11-20T08:37:58.008Z,116.00
2022-11-20T08:38:57.991Z,116.00
2022-11-20T08:39:57.969Z,136.00
2022-11-20T08:40:57.947Z,176.00
2022-11-20T08:41:57.926Z,180.00
2022-11-20T08:42:57.906Z,164.00
2022-11-20T08:43:57.888Z,152.00
2022-11-20T08:44:57.861Z,140.00
2022-11-20T08:45:57.840Z,124.00
2022-11-20T08:46:57.821Z,120.00
2022-11-20T08:47:57.800Z,112.00
2022-11-20T08:48:57.782Z,132.00
2022-11-20T08:49:57.759Z,140.00
2022-11-20T08:50:57.736Z,164.00
2022-11-20T08:51:57.713Z,256.00
2022-11-20T08:52:57.696Z,304.00
2022-11-20T08:53:57.673Z,368.00
2022-11-20T08:54:57.652Z,312.00
2022-11-20T08:55:57.632Z,304.00
2022-11-20T08:56:57.612Z,348.00
2022-11-20T08:57:57.589Z,332.00
2022-11-20T09:00:06.491Z,376.00
2022-11-20T09:00:57.571Z,408.00
2022-11-20T09:01:57.505Z,440.00
2022-11-20T09:02:57.483Z,416.00
2022-11-20T09:03:57.462Z,504.00
2022-11-20T09:04:57.442Z,516.00
2022-11-20T09:05:57.417Z,560.00
2022-11-20T09:06:57.474Z,608.00
2022-11-20T09:07:57.381Z,688.00
2022-11-20T09:08:59.645Z,708.00
2022-11-20T09:10:22.146Z,800.00
2022-11-20T09:10:57.318Z,764.00
2022-11-20T09:11:57.295Z,812.00
2022-11-20T09:12:57.275Z,696.00
2022-11-20T09:13:57.257Z,408.00
2022-11-20T09:14:57.230Z,520.00
2022-11-20T09:15:57.209Z,664.00
2022-11-20T09:16:57.187Z,688.00
2022-11-20T09:17:57.169Z,356.00
2022-11-20T09:19:28.152Z,532.00
2022-11-20T09:19:57.129Z,488.00
2022-11-20T09:20:57.144Z,696.00
2022-11-20T09:21:59.920Z,820.00
2022-11-20T09:22:57.063Z,676.00
2022-11-20T09:23:57.047Z,528.00
2022-11-20T09:24:57.026Z,464.00
2022-11-20T09:25:57.001Z,512.00
2022-11-20T09:26:56.983Z,456.00
2022-11-20T09:27:56.959Z,408.00
2022-11-20T09:28:58.237Z,452.00
2022-11-20T09:29:56.915Z,488.00
2022-11-20T09:30:56.898Z,484.00
2022-11-20T09:31:56.877Z,476.00
2022-11-20T09:32:56.864Z,480.00
2022-11-20T09:33:56.833Z,464.00
2022-11-20T09:34:56.816Z,464.00
2022-11-20T09:35:56.790Z,448.00
2022-11-20T09:36:56.771Z,436.00
2022-11-20T09:37:56.766Z,432.00
2022-11-20T09:38:56.732Z,436.00
2022-11-20T09:39:56.710Z,452.00
2022-11-20T09:40:56.691Z,504.00
2022-11-20T09:41:56.666Z,528.00
2022-11-20T09:42:56.647Z,556.00
2022-11-20T09:43:56.625Z,580.00
2022-11-20T09:44:56.609Z,588.00
2022-11-20T09:45:56.583Z,604.00
2022-11-20T09:46:56.571Z,624.00
2022-11-20T09:47:56.542Z,680.00
2022-11-20T09:48:56.520Z,672.00
2022-11-20T09:49:56.501Z,672.00
2022-11-20T09:50:56.481Z,680.00
2022-11-20T09:51:56.462Z,596.00
2022-11-20T09:52:56.441Z,492.00
2022-11-20T09:53:56.415Z,468.00
2022-11-20T09:54:56.400Z,444.00
2022-11-20T09:55:56.379Z,476.00
2022-11-20T09:56:56.356Z,500.00
2022-11-20T09:57:56.333Z,512.00
2022-11-20T09:58:56.315Z,476.00
2022-11-20T09:59:56.292Z,476.00
2022-11-20T10:00:56.320Z,484.00
2022-11-20T10:01:56.253Z,480.00
2022-11-20T10:02:56.232Z,452.00
2022-11-20T10:03:56.210Z,456.00
2022-11-20T10:04:56.191Z,464.00
2022-11-20T10:05:56.168Z,432.00
2022-11-20T10:07:17.207Z,400.00
2022-11-20T10:07:56.296Z,436.00
2022-11-20T10:08:56.110Z,432.00
2022-11-20T10:09:56.097Z,412.00
2022-11-20T10:10:56.066Z,360.00
2022-11-20T10:11:56.047Z,308.00
2022-11-20T10:12:56.025Z,300.00
2022-11-20T10:13:56.004Z,292.00
2022-11-20T10:14:55.985Z,284.00
2022-11-20T10:15:55.963Z,292.00
2022-11-20T10:16:55.944Z,292.00
2022-11-20T10:17:55.924Z,272.00
2022-11-20T10:18:55.902Z,276.00
2022-11-20T10:19:55.881Z,252.00
2022-11-20T10:20:55.861Z,252.00
2022-11-20T10:21:55.840Z,288.00
2022-11-20T10:22:55.823Z,296.00
2022-11-20T10:23:55.800Z,312.00
2022-11-20T10:24:55.778Z,368.00
2022-11-20T10:25:55.766Z,380.00
2022-11-20T10:26:55.739Z,428.00
2022-11-20T10:27:55.716Z,428.00
2022-11-20T10:28:59.844Z,448.00
2022-11-20T10:29:55.701Z,516.00
2022-11-20T10:30:55.678Z,492.00
2022-11-20T10:31:55.637Z,396.00
2022-11-20T10:32:55.622Z,384.00
2022-11-20T10:34:11.761Z,300.00
2022-11-20T10:34:55.574Z,272.00
2022-11-20T10:35:55.555Z,292.00
2022-11-20T10:36:55.532Z,316.00
2022-11-20T10:37:55.512Z,336.00
2022-11-20T10:38:55.490Z,276.00
2022-11-20T10:39:55.475Z,284.00
2022-11-20T10:40:55.449Z,300.00
2022-11-20T10:41:55.429Z,288.00
2022-11-20T10:42:55.408Z,284.00
2022-11-20T10:43:55.394Z,284.00
2022-11-20T10:44:56.964Z,272.00
2022-11-20T10:45:55.349Z,288.00
2022-11-20T10:46:55.331Z,280.00
2022-11-20T10:47:55.312Z,240.00
2022-11-20T10:48:55.285Z,224.00
2022-11-20T10:49:55.268Z,208.00
2022-11-20T10:50:55.249Z,228.00
2022-11-20T10:51:55.229Z,264.00
2022-11-20T10:52:55.205Z,248.00
2022-11-20T10:53:55.187Z,244.00
2022-11-20T10:54:55.166Z,236.00
2022-11-20T10:55:55.147Z,212.00
2022-11-20T10:56:55.122Z,192.00
2022-11-20T10:57:55.114Z,184.00
2022-11-20T10:58:55.087Z,192.00
2022-11-20T10:59:55.064Z,204.00
2022-11-20T11:00:55.075Z,220.00
2022-11-20T11:01:55.021Z,200.00
2022-11-20T11:02:55.002Z,188.00
2022-11-20T11:03:54.982Z,192.00
2022-11-20T11:04:54.961Z,184.00
2022-11-20T11:05:54.940Z,160.00
2022-11-20T11:06:54.922Z,160.00
2022-11-20T11:07:54.905Z,172.00
2022-11-20T11:08:54.881Z,196.00
2022-11-20T11:09:54.864Z,232.00
2022-11-20T11:10:54.837Z,216.00
2022-11-20T11:11:54.819Z,248.00
2022-11-20T11:12:54.797Z,268.00
2022-11-20T11:13:54.780Z,276.00
2022-11-20T11:14:54.755Z,272.00
2022-11-20T11:15:54.739Z,252.00
2022-11-20T11:16:54.721Z,224.00
2022-11-20T11:17:54.703Z,204.00
2022-11-20T11:18:54.679Z,212.00
2022-11-20T11:19:54.658Z,196.00
2022-11-20T11:20:54.634Z,156.00
2022-11-20T11:21:55.777Z,152.00
2022-11-20T11:22:54.593Z,148.00
2022-11-20T11:23:55.634Z,152.00
2022-11-20T11:24:54.557Z,156.00
2022-11-20T11:25:54.537Z,164.00
2022-11-20T11:26:54.511Z,172.00
2022-11-20T11:27:54.498Z,180.00
2022-11-20T11:28:54.487Z,196.00
2022-11-20T11:29:54.456Z,204.00
2022-11-20T11:30:54.433Z,200.00
2022-11-20T11:31:54.413Z,232.00
2022-11-20T11:32:54.393Z,240.00
2022-11-20T11:33:54.374Z,220.00
2022-11-20T11:34:54.350Z,232.00
2022-11-20T11:35:54.333Z,264.00
2022-11-20T11:36:54.308Z,344.00
2022-11-20T11:37:54.289Z,392.00
2022-11-20T11:38:54.270Z,436.00
2022-11-20T11:40:22.393Z,476.00
2022-11-20T11:40:54.229Z,392.00
2022-11-20T11:41:54.211Z,276.00
2022-11-20T11:42:54.191Z,196.00
2022-11-20T11:43:54.170Z,168.00
2022-11-20T11:44:54.153Z,156.00
2022-11-20T11:45:54.128Z,156.00
2022-11-20T11:46:54.106Z,176.00
2022-11-20T11:47:54.089Z,192.00
2022-11-20T11:48:54.064Z,232.00
2022-11-20T11:49:54.049Z,248.00
2022-11-20T11:50:54.025Z,200.00
2022-11-20T11:51:54.008Z,208.00
2022-11-20T11:52:53.983Z,228.00
2022-11-20T11:53:53.966Z,248.00
2022-11-20T11:54:53.944Z,280.00
2022-11-20T11:55:53.926Z,312.00
2022-11-20T11:56:53.916Z,320.00
2022-11-20T11:57:53.886Z,304.00
2022-11-20T11:58:53.863Z,300.00
2022-11-20T11:59:53.841Z,352.00
2022-11-20T12:00:53.819Z,376.00
2022-11-20T12:01:53.834Z,328.00
2022-11-20T12:02:53.782Z,364.00
2022-11-20T12:03:53.763Z,436.00
2022-11-20T12:04:53.740Z,460.00
2022-11-20T12:05:53.722Z,388.00
2022-11-20T12:06:53.699Z,364.00
2022-11-20T12:07:53.741Z,368.00
2022-11-20T12:08:53.665Z,292.00
2022-11-20T12:09:53.648Z,252.00
2022-11-20T12:10:53.617Z,268.00
2022-11-20T12:11:53.598Z,264.00
2022-11-20T12:12:53.575Z,260.00
2022-11-20T12:13:53.557Z,304.00
2022-11-20T12:14:53.535Z,356.00
2022-11-20T12:15:53.520Z,368.00
2022-11-20T12:16:53.495Z,380.00
2022-11-20T12:17:53.474Z,396.00
2022-11-20T12:18:53.457Z,496.00
2022-11-20T12:19:53.437Z,544.00
2022-11-20T12:20:53.412Z,532.00
2022-11-20T12:21:56.174Z,492.00
2022-11-20T12:22:53.374Z,428.00
2022-11-20T12:23:53.356Z,432.00
2022-11-20T12:24:53.331Z,360.00
2022-11-20T12:25:53.312Z,284.00
2022-11-20T12:26:53.297Z,364.00
2022-11-20T12:27:53.275Z,396.00
2022-11-20T12:28:53.257Z,436.00
2022-11-20T12:29:53.252Z,568.00
2022-11-20T12:30:53.211Z,616.00
2022-11-20T12:31:53.194Z,580.00
2022-11-20T12:32:53.176Z,468.00
2022-11-20T12:33:53.150Z,408.00
2022-11-20T12:34:53.134Z,424.00
2022-11-20T12:35:53.111Z,388.00
2022-11-20T12:36:53.086Z,328.00
2022-11-20T12:37:53.070Z,260.00
2022-11-20T12:38:53.060Z,232.00
2022-11-20T12:39:53.035Z,196.00
2022-11-20T12:40:53.010Z,188.00
2022-11-20T12:41:52.989Z,180.00
2022-11-20T12:42:52.969Z,164.00
2022-11-20T12:43:52.950Z,188.00
2022-11-20T12:44:52.956Z,212.00
2022-11-20T12:45:52.921Z,264.00
2022-11-20T12:46:52.888Z,268.00
2022-11-20T12:47:52.868Z,248.00
2022-11-20T12:48:52.853Z,252.00
2022-11-20T12:49:52.825Z,312.00
2022-11-20T12:51:14.084Z,320.00
2022-11-20T12:51:52.790Z,328.00
2022-11-20T12:52:52.763Z,340.00
2022-11-20T12:53:52.745Z,356.00
2022-11-20T12:54:52.726Z,364.00
2022-11-20T12:55:52.704Z,376.00
2022-11-20T12:56:52.685Z,376.00
2022-11-20T12:57:52.666Z,428.00
2022-11-20T12:58:52.650Z,536.00
2022-11-20T12:59:52.626Z,548.00
2022-11-20T13:00:52.695Z,512.00
2022-11-20T13:01:52.599Z,428.00
2022-11-20T13:02:52.567Z,352.00
2022-11-20T13:03:52.545Z,324.00
2022-11-20T13:04:52.523Z,264.00
2022-11-20T13:05:52.502Z,212.00
2022-11-20T13:06:52.481Z,196.00
2022-11-20T13:07:52.473Z,180.00
2022-11-20T13:08:52.446Z,144.00
2022-11-20T13:09:52.447Z,144.00
2022-11-20T13:10:52.401Z,188.00
2022-11-20T13:11:52.386Z,192.00
2022-11-20T13:12:52.361Z,176.00
2022-11-20T13:13:52.343Z,156.00
2022-11-20T13:14:52.321Z,132.00
2022-11-20T13:15:52.442Z,136.00
2022-11-20T13:16:52.277Z,116.00
2022-11-20T13:17:52.259Z,152.00
2022-11-20T13:18:52.246Z,300.00
2022-11-20T13:19:52.222Z,432.00
2022-11-20T13:20:52.201Z,432.00
2022-11-20T13:21:52.195Z,444.00
2022-11-20T13:22:52.163Z,480.00
2022-11-20T13:23:52.142Z,532.00
2022-11-20T13:24:52.119Z,572.00
2022-11-20T13:25:52.100Z,556.00